sensor_id;sensor_type;location;lat;lon;timestamp;temperature;humidity
78536;SHT31;67829;51.968;5.684;2023-03-20T00:01:13;12.0;67.6
78536;SHT31;67829;51.968;5.684;2023-03-20T00:03:43;12.0;67.7
78536;SHT31;67829;51.968;5.684;2023-03-20T00:06:14;12.0;67.5
78536;SHT31;67829;51.968;5.684;2023-03-20T00:08:45;11.9;67.6
78536;SHT31;67829;51.968;5.684;2023-03-20T00:11:27;11.9;67.3
78536;SHT31;67829;51.968;5.684;2023-03-20T00:14:00;11.9;67.0
78536;SHT31;67829;51.968;5.684;2023-03-20T00:16:33;11.9;66.6
78536;SHT31;67829;51.968;5.684;2023-03-20T00:19:03;11.9;66.5
78536;SHT31;67829;51.968;5.684;2023-03-20T00:21:34;11.9;66.5
78536;SHT31;67829;51.968;5.684;2023-03-20T00:24:04;11.9;66.3
78536;SHT31;67829;51.968;5.684;2023-03-20T00:26:35;11.9;66.6
78536;SHT31;67829;51.968;5.684;2023-03-20T00:29:06;11.9;66.6
78536;SHT31;67829;51.968;5.684;2023-03-20T00:31:36;11.8;66.6
78536;SHT31;67829;51.968;5.684;2023-03-20T00:34:13;11.8;66.7
78536;SHT31;67829;51.968;5.684;2023-03-20T00:36:42;11.8;66.9
78536;SHT31;67829;51.968;5.684;2023-03-20T00:39:11;11.8;67.0
78536;SHT31;67829;51.968;5.684;2023-03-20T00:41:43;11.8;67.1
78536;SHT31;67829;51.968;5.684;2023-03-20T00:44:21;11.8;67.3
78536;SHT31;67829;51.968;5.684;2023-03-20T00:46:53;11.8;67.4
78536;SHT31;67829;51.968;5.684;2023-03-20T00:49:25;11.8;67.5
78536;SHT31;67829;51.968;5.684;2023-03-20T00:51:55;11.8;67.8
78536;SHT31;67829;51.968;5.684;2023-03-20T00:54:24;11.8;67.8
78536;SHT31;67829;51.968;5.684;2023-03-20T00:56:56;11.8;67.9
78536;SHT31;67829;51.968;5.684;2023-03-20T00:59:30;11.8;67.9
78536;SHT31;67829;51.968;5.684;2023-03-20T01:02:00;11.8;67.9
78536;SHT31;67829;51.968;5.684;2023-03-20T01:04:34;11.8;67.8
78536;SHT31;67829;51.968;5.684;2023-03-20T01:07:04;11.8;67.5
78536;SHT31;67829;51.968;5.684;2023-03-20T01:09:33;11.8;67.3
78536;SHT31;67829;51.968;5.684;2023-03-20T01:12:02;11.8;67.3
78536;SHT31;67829;51.968;5.684;2023-03-20T01:14:35;11.8;66.9
78536;SHT31;67829;51.968;5.684;2023-03-20T01:17:04;11.8;66.4
78536;SHT31;67829;51.968;5.684;2023-03-20T01:19:33;11.7;66.7
78536;SHT31;67829;51.968;5.684;2023-03-20T01:22:01;11.7;66.7
78536;SHT31;67829;51.968;5.684;2023-03-20T01:24:30;11.7;66.6
78536;SHT31;67829;51.968;5.684;2023-03-20T01:26:59;11.6;66.7
78536;SHT31;67829;51.968;5.684;2023-03-20T01:29:30;11.6;66.9
78536;SHT31;67829;51.968;5.684;2023-03-20T01:31:59;11.6;66.8
78536;SHT31;67829;51.968;5.684;2023-03-20T01:34:27;11.6;66.8
78536;SHT31;67829;51.968;5.684;2023-03-20T01:36:57;11.6;66.1
78536;SHT31;67829;51.968;5.684;2023-03-20T01:39:30;11.5;65.0
78536;SHT31;67829;51.968;5.684;2023-03-20T01:42:01;11.5;64.6
78536;SHT31;67829;51.968;5.684;2023-03-20T01:44:33;11.5;64.2
78536;SHT31;67829;51.968;5.684;2023-03-20T01:47:14;11.5;64.4
78536;SHT31;67829;51.968;5.684;2023-03-20T01:50:16;11.5;64.6
78536;SHT31;67829;51.968;5.684;2023-03-20T01:52:50;11.5;63.8
78536;SHT31;67829;51.968;5.684;2023-03-20T01:55:21;11.4;64.1
78536;SHT31;67829;51.968;5.684;2023-03-20T01:57:51;11.4;64.4
78536;SHT31;67829;51.968;5.684;2023-03-20T02:00:24;11.4;63.7
78536;SHT31;67829;51.968;5.684;2023-03-20T02:02:52;11.4;63.3
78536;SHT31;67829;51.968;5.684;2023-03-20T02:05:22;11.4;63.7
78536;SHT31;67829;51.968;5.684;2023-03-20T02:07:57;11.4;62.8
78536;SHT31;67829;51.968;5.684;2023-03-20T02:10:27;11.4;62.2
78536;SHT31;67829;51.968;5.684;2023-03-20T02:12:57;11.4;62.1
78536;SHT31;67829;51.968;5.684;2023-03-20T02:15:31;11.4;61.2
78536;SHT31;67829;51.968;5.684;2023-03-20T02:18:00;11.4;61.3
78536;SHT31;67829;51.968;5.684;2023-03-20T02:20:43;11.4;61.2
78536;SHT31;67829;51.968;5.684;2023-03-20T02:25:47;11.4;61.6
78536;SHT31;67829;51.968;5.684;2023-03-20T02:28:56;11.5;62.0
78536;SHT31;67829;51.968;5.684;2023-03-20T02:31:45;11.5;61.9
78536;SHT31;67829;51.968;5.684;2023-03-20T02:34:41;11.5;62.3
78536;SHT31;67829;51.968;5.684;2023-03-20T02:37:22;11.4;62.9
78536;SHT31;67829;51.968;5.684;2023-03-20T02:40:08;11.4;63.3
78536;SHT31;67829;51.968;5.684;2023-03-20T02:42:43;11.4;63.3
78536;SHT31;67829;51.968;5.684;2023-03-20T02:45:18;11.4;63.5
78536;SHT31;67829;51.968;5.684;2023-03-20T02:47:58;11.4;63.4
78536;SHT31;67829;51.968;5.684;2023-03-20T02:50:37;11.4;63.5
78536;SHT31;67829;51.968;5.684;2023-03-20T02:53:19;11.4;63.9
78536;SHT31;67829;51.968;5.684;2023-03-20T02:55:56;11.4;63.8
78536;SHT31;67829;51.968;5.684;2023-03-20T02:58:37;11.4;64.1
78536;SHT31;67829;51.968;5.684;2023-03-20T03:01:12;11.3;64.0
78536;SHT31;67829;51.968;5.684;2023-03-20T03:03:46;11.3;64.3
78536;SHT31;67829;51.968;5.684;2023-03-20T03:06:22;11.3;64.1
78536;SHT31;67829;51.968;5.684;2023-03-20T03:08:57;11.3;64.3
78536;SHT31;67829;51.968;5.684;2023-03-20T03:11:29;11.3;64.4
78536;SHT31;67829;51.968;5.684;2023-03-20T03:14:01;11.3;64.7
78536;SHT31;67829;51.968;5.684;2023-03-20T03:16:34;11.3;65.0
78536;SHT31;67829;51.968;5.684;2023-03-20T03:19:08;11.3;65.2
78536;SHT31;67829;51.968;5.684;2023-03-20T03:21:39;11.3;65.3
78536;SHT31;67829;51.968;5.684;2023-03-20T03:24:23;11.3;65.3
78536;SHT31;67829;51.968;5.684;2023-03-20T03:26:56;11.2;65.3
78536;SHT31;67829;51.968;5.684;2023-03-20T03:29:30;11.2;64.8
78536;SHT31;67829;51.968;5.684;2023-03-20T03:32:05;11.2;64.5
78536;SHT31;67829;51.968;5.684;2023-03-20T03:34:35;11.2;64.2
78536;SHT31;67829;51.968;5.684;2023-03-20T03:37:12;11.2;64.2
78536;SHT31;67829;51.968;5.684;2023-03-20T03:39:51;11.1;64.3
78536;SHT31;67829;51.968;5.684;2023-03-20T03:42:26;11.1;64.1
78536;SHT31;67829;51.968;5.684;2023-03-20T03:45:03;11.1;64.4
78536;SHT31;67829;51.968;5.684;2023-03-20T03:47:37;11.0;64.2
78536;SHT31;67829;51.968;5.684;2023-03-20T03:50:12;11.0;64.0
78536;SHT31;67829;51.968;5.684;2023-03-20T03:52:44;11.0;64.0
78536;SHT31;67829;51.968;5.684;2023-03-20T03:55:19;10.9;64.2
78536;SHT31;67829;51.968;5.684;2023-03-20T03:57:54;10.9;64.2
78536;SHT31;67829;51.968;5.684;2023-03-20T04:00:26;10.9;64.3
78536;SHT31;67829;51.968;5.684;2023-03-20T04:02:57;10.8;64.4
78536;SHT31;67829;51.968;5.684;2023-03-20T04:05:31;10.8;64.5
78536;SHT31;67829;51.968;5.684;2023-03-20T04:08:05;10.8;64.6
78536;SHT31;67829;51.968;5.684;2023-03-20T04:10:34;10.7;64.8
78536;SHT31;67829;51.968;5.684;2023-03-20T04:13:03;10.7;64.9
78536;SHT31;67829;51.968;5.684;2023-03-20T04:15:31;10.7;65.1
78536;SHT31;67829;51.968;5.684;2023-03-20T04:18:00;10.6;65.2
78536;SHT31;67829;51.968;5.684;2023-03-20T04:20:29;10.6;65.4
78536;SHT31;67829;51.968;5.684;2023-03-20T04:22:58;10.6;65.5
78536;SHT31;67829;51.968;5.684;2023-03-20T04:25:27;10.6;65.5
78536;SHT31;67829;51.968;5.684;2023-03-20T04:27:55;10.6;65.4
78536;SHT31;67829;51.968;5.684;2023-03-20T04:30:24;10.6;65.5
78536;SHT31;67829;51.968;5.684;2023-03-20T04:32:52;10.5;65.5
78536;SHT31;67829;51.968;5.684;2023-03-20T04:35:21;10.5;65.6
78536;SHT31;67829;51.968;5.684;2023-03-20T04:37:50;10.5;65.7
78536;SHT31;67829;51.968;5.684;2023-03-20T04:40:18;10.5;65.7
78536;SHT31;67829;51.968;5.684;2023-03-20T04:42:47;10.5;65.8
78536;SHT31;67829;51.968;5.684;2023-03-20T04:45:15;10.5;65.8
78536;SHT31;67829;51.968;5.684;2023-03-20T04:47:45;10.5;65.9
78536;SHT31;67829;51.968;5.684;2023-03-20T04:50:16;10.5;65.8
78536;SHT31;67829;51.968;5.684;2023-03-20T04:52:45;10.5;65.8
78536;SHT31;67829;51.968;5.684;2023-03-20T04:55:14;10.5;65.9
78536;SHT31;67829;51.968;5.684;2023-03-20T04:57:43;10.5;65.7
78536;SHT31;67829;51.968;5.684;2023-03-20T05:00:15;10.5;65.5
78536;SHT31;67829;51.968;5.684;2023-03-20T05:02:45;10.5;65.5
78536;SHT31;67829;51.968;5.684;2023-03-20T05:05:15;10.5;65.5
78536;SHT31;67829;51.968;5.684;2023-03-20T05:07:44;10.5;65.4
78536;SHT31;67829;51.968;5.684;2023-03-20T05:10:13;10.5;65.2
78536;SHT31;67829;51.968;5.684;2023-03-20T05:12:42;10.5;65.0
78536;SHT31;67829;51.968;5.684;2023-03-20T05:15:11;10.5;65.0
78536;SHT31;67829;51.968;5.684;2023-03-20T05:17:39;10.4;64.5
78536;SHT31;67829;51.968;5.684;2023-03-20T05:20:08;10.4;64.7
78536;SHT31;67829;51.968;5.684;2023-03-20T05:22:37;10.4;64.8
78536;SHT31;67829;51.968;5.684;2023-03-20T05:25:06;10.4;64.8
78536;SHT31;67829;51.968;5.684;2023-03-20T05:27:35;10.4;64.9
78536;SHT31;67829;51.968;5.684;2023-03-20T05:30:04;10.3;64.7
78536;SHT31;67829;51.968;5.684;2023-03-20T05:32:32;10.3;65.0
78536;SHT31;67829;51.968;5.684;2023-03-20T05:35:02;10.3;65.1
78536;SHT31;67829;51.968;5.684;2023-03-20T05:37:32;10.3;65.0
78536;SHT31;67829;51.968;5.684;2023-03-20T05:40:00;10.3;64.9
78536;SHT31;67829;51.968;5.684;2023-03-20T05:42:29;10.3;64.9
78536;SHT31;67829;51.968;5.684;2023-03-20T05:44:57;10.3;64.8
78536;SHT31;67829;51.968;5.684;2023-03-20T05:47:26;10.3;64.8
78536;SHT31;67829;51.968;5.684;2023-03-20T05:49:54;10.2;65.0
78536;SHT31;67829;51.968;5.684;2023-03-20T05:52:23;10.2;65.1
78536;SHT31;67829;51.968;5.684;2023-03-20T05:54:52;10.2;64.9
78536;SHT31;67829;51.968;5.684;2023-03-20T05:57:20;10.2;65.0
78536;SHT31;67829;51.968;5.684;2023-03-20T05:59:50;10.2;65.1
78536;SHT31;67829;51.968;5.684;2023-03-20T06:02:18;10.2;64.9
78536;SHT31;67829;51.968;5.684;2023-03-20T06:04:47;10.2;65.1
78536;SHT31;67829;51.968;5.684;2023-03-20T06:07:15;10.2;64.8
78536;SHT31;67829;51.968;5.684;2023-03-20T06:09:44;10.2;65.0
78536;SHT31;67829;51.968;5.684;2023-03-20T06:12:12;10.2;65.4
78536;SHT31;67829;51.968;5.684;2023-03-20T06:14:41;10.2;65.0
78536;SHT31;67829;51.968;5.684;2023-03-20T06:17:10;10.2;65.3
78536;SHT31;67829;51.968;5.684;2023-03-20T06:19:38;10.2;65.4
78536;SHT31;67829;51.968;5.684;2023-03-20T06:22:07;10.2;65.6
78536;SHT31;67829;51.968;5.684;2023-03-20T06:24:35;10.2;65.7
78536;SHT31;67829;51.968;5.684;2023-03-20T06:27:04;10.2;65.7
78536;SHT31;67829;51.968;5.684;2023-03-20T06:29:32;10.2;65.5
78536;SHT31;67829;51.968;5.684;2023-03-20T06:32:02;10.2;65.5
78536;SHT31;67829;51.968;5.684;2023-03-20T06:34:32;10.2;65.7
78536;SHT31;67829;51.968;5.684;2023-03-20T06:37:01;10.2;65.6
78536;SHT31;67829;51.968;5.684;2023-03-20T06:39:29;10.2;65.6
78536;SHT31;67829;51.968;5.684;2023-03-20T06:41:58;10.2;65.6
78536;SHT31;67829;51.968;5.684;2023-03-20T06:44:27;10.2;65.8
78536;SHT31;67829;51.968;5.684;2023-03-20T06:46:55;10.2;66.3
78536;SHT31;67829;51.968;5.684;2023-03-20T06:49:24;10.2;66.0
78536;SHT31;67829;51.968;5.684;2023-03-20T06:51:53;10.2;66.2
78536;SHT31;67829;51.968;5.684;2023-03-20T06:54:22;10.2;66.0
78536;SHT31;67829;51.968;5.684;2023-03-20T06:56:50;10.2;65.9
78536;SHT31;67829;51.968;5.684;2023-03-20T06:59:21;10.2;65.6
78536;SHT31;67829;51.968;5.684;2023-03-20T07:01:49;10.2;65.8
78536;SHT31;67829;51.968;5.684;2023-03-20T07:04:18;10.2;65.8
78536;SHT31;67829;51.968;5.684;2023-03-20T07:06:47;10.2;66.3
78536;SHT31;67829;51.968;5.684;2023-03-20T07:09:16;10.2;65.9
78536;SHT31;67829;51.968;5.684;2023-03-20T07:11:47;10.2;66.0
78536;SHT31;67829;51.968;5.684;2023-03-20T07:14:16;10.2;66.1
78536;SHT31;67829;51.968;5.684;2023-03-20T07:16:44;10.2;66.4
78536;SHT31;67829;51.968;5.684;2023-03-20T07:19:13;10.2;66.1
78536;SHT31;67829;51.968;5.684;2023-03-20T07:21:42;10.2;66.2
78536;SHT31;67829;51.968;5.684;2023-03-20T07:24:11;10.2;66.2
78536;SHT31;67829;51.968;5.684;2023-03-20T07:26:40;10.2;66.3
78536;SHT31;67829;51.968;5.684;2023-03-20T07:29:08;10.2;65.8
78536;SHT31;67829;51.968;5.684;2023-03-20T07:31:37;10.2;66.3
78536;SHT31;67829;51.968;5.684;2023-03-20T07:34:06;10.2;66.3
78536;SHT31;67829;51.968;5.684;2023-03-20T07:36:34;10.2;66.1
78536;SHT31;67829;51.968;5.684;2023-03-20T07:39:03;10.2;66.2
78536;SHT31;67829;51.968;5.684;2023-03-20T07:41:32;10.2;65.8
78536;SHT31;67829;51.968;5.684;2023-03-20T07:44:01;10.2;65.9
78536;SHT31;67829;51.968;5.684;2023-03-20T07:46:32;10.2;66.0
78536;SHT31;67829;51.968;5.684;2023-03-20T07:49:01;10.2;66.3
78536;SHT31;67829;51.968;5.684;2023-03-20T07:51:29;10.2;66.1
78536;SHT31;67829;51.968;5.684;2023-03-20T07:53:58;10.2;66.2
78536;SHT31;67829;51.968;5.684;2023-03-20T07:56:26;10.2;65.9
78536;SHT31;67829;51.968;5.684;2023-03-20T07:58:55;10.2;65.8
78536;SHT31;67829;51.968;5.684;2023-03-20T08:01:24;10.2;66.3
78536;SHT31;67829;51.968;5.684;2023-03-20T08:03:52;10.2;66.1
78536;SHT31;67829;51.968;5.684;2023-03-20T08:06:21;10.3;65.9
78536;SHT31;67829;51.968;5.684;2023-03-20T08:08:50;10.3;65.9
78536;SHT31;67829;51.968;5.684;2023-03-20T08:11:19;10.3;65.5
78536;SHT31;67829;51.968;5.684;2023-03-20T08:13:47;10.3;66.2
78536;SHT31;67829;51.968;5.684;2023-03-20T08:16:16;10.3;65.9
78536;SHT31;67829;51.968;5.684;2023-03-20T08:18:45;10.3;65.6
78536;SHT31;67829;51.968;5.684;2023-03-20T08:21:15;10.3;65.2
78536;SHT31;67829;51.968;5.684;2023-03-20T08:23:43;10.4;65.3
78536;SHT31;67829;51.968;5.684;2023-03-20T08:26:12;10.4;65.9
78536;SHT31;67829;51.968;5.684;2023-03-20T08:28:41;10.4;65.6
78536;SHT31;67829;51.968;5.684;2023-03-20T08:31:09;10.4;65.5
78536;SHT31;67829;51.968;5.684;2023-03-20T08:33:38;10.5;65.3
78536;SHT31;67829;51.968;5.684;2023-03-20T08:36:07;10.5;65.9
78536;SHT31;67829;51.968;5.684;2023-03-20T08:38:36;10.6;65.2
78536;SHT31;67829;51.968;5.684;2023-03-20T08:41:06;10.6;64.9
78536;SHT31;67829;51.968;5.684;2023-03-20T08:43:35;10.6;64.7
78536;SHT31;67829;51.968;5.684;2023-03-20T08:46:04;10.7;64.6
78536;SHT31;67829;51.968;5.684;2023-03-20T08:48:33;10.7;64.0
78536;SHT31;67829;51.968;5.684;2023-03-20T08:51:02;10.7;64.2
78536;SHT31;67829;51.968;5.684;2023-03-20T08:53:31;10.8;64.4
78536;SHT31;67829;51.968;5.684;2023-03-20T08:56:00;10.8;63.7
78536;SHT31;67829;51.968;5.684;2023-03-20T08:58:29;10.8;64.1
78536;SHT31;67829;51.968;5.684;2023-03-20T09:01:02;10.9;64.4
78536;SHT31;67829;51.968;5.684;2023-03-20T09:03:31;10.9;63.7
78536;SHT31;67829;51.968;5.684;2023-03-20T09:06:03;11.0;63.0
78536;SHT31;67829;51.968;5.684;2023-03-20T09:08:32;11.0;63.3
78536;SHT31;67829;51.968;5.684;2023-03-20T09:11:01;11.1;62.5
78536;SHT31;67829;51.968;5.684;2023-03-20T09:13:29;11.1;62.9
78536;SHT31;67829;51.968;5.684;2023-03-20T09:15:58;11.1;62.5
78536;SHT31;67829;51.968;5.684;2023-03-20T09:18:28;11.2;62.8
78536;SHT31;67829;51.968;5.684;2023-03-20T09:20:57;11.2;62.4
78536;SHT31;67829;51.968;5.684;2023-03-20T09:23:25;11.3;62.5
78536;SHT31;67829;51.968;5.684;2023-03-20T09:25:54;11.3;61.9
78536;SHT31;67829;51.968;5.684;2023-03-20T09:28:22;11.3;62.8
78536;SHT31;67829;51.968;5.684;2023-03-20T09:30:57;11.3;64.3
78536;SHT31;67829;51.968;5.684;2023-03-20T09:33:26;11.3;64.0
78536;SHT31;67829;51.968;5.684;2023-03-20T09:35:55;11.3;63.6
78536;SHT31;67829;51.968;5.684;2023-03-20T09:38:26;11.3;64.2
78536;SHT31;67829;51.968;5.684;2023-03-20T09:40:56;11.3;65.1
78536;SHT31;67829;51.968;5.684;2023-03-20T09:43:42;11.3;64.9
78536;SHT31;67829;51.968;5.684;2023-03-20T09:46:22;11.3;65.2
78536;SHT31;67829;51.968;5.684;2023-03-20T09:49:04;11.3;65.1
78536;SHT31;67829;51.968;5.684;2023-03-20T09:51:39;11.3;66.4
78536;SHT31;67829;51.968;5.684;2023-03-20T09:54:15;11.3;67.0
78536;SHT31;67829;51.968;5.684;2023-03-20T09:56:45;11.3;65.2
78536;SHT31;67829;51.968;5.684;2023-03-20T09:59:15;11.3;66.3
78536;SHT31;67829;51.968;5.684;2023-03-20T10:01:49;11.4;66.7
78536;SHT31;67829;51.968;5.684;2023-03-20T10:04:19;11.4;65.4
78536;SHT31;67829;51.968;5.684;2023-03-20T10:06:48;11.4;65.7
78536;SHT31;67829;51.968;5.684;2023-03-20T10:09:20;11.4;66.7
78536;SHT31;67829;51.968;5.684;2023-03-20T10:12:01;11.5;65.3
78536;SHT31;67829;51.968;5.684;2023-03-20T10:14:38;11.5;65.8
78536;SHT31;67829;51.968;5.684;2023-03-20T10:18:01;11.5;65.8
78536;SHT31;67829;51.968;5.684;2023-03-20T10:20:35;11.6;65.4
78536;SHT31;67829;51.968;5.684;2023-03-20T10:23:15;11.6;65.7
78536;SHT31;67829;51.968;5.684;2023-03-20T10:25:51;11.7;65.9
78536;SHT31;67829;51.968;5.684;2023-03-20T10:28:27;11.7;65.8
78536;SHT31;67829;51.968;5.684;2023-03-20T10:31:12;11.8;63.9
78536;SHT31;67829;51.968;5.684;2023-03-20T10:33:56;11.8;64.2
78536;SHT31;67829;51.968;5.684;2023-03-20T10:36:44;11.8;64.7
78536;SHT31;67829;51.968;5.684;2023-03-20T10:39:30;11.9;63.5
78536;SHT31;67829;51.968;5.684;2023-03-20T10:41:58;11.9;64.2
78536;SHT31;67829;51.968;5.684;2023-03-20T10:44:32;11.9;62.2
78536;SHT31;67829;51.968;5.684;2023-03-20T10:47:05;12.0;62.9
78536;SHT31;67829;51.968;5.684;2023-03-20T10:49:39;12.0;62.0
78536;SHT31;67829;51.968;5.684;2023-03-20T10:52:12;12.0;61.6
78536;SHT31;67829;51.968;5.684;2023-03-20T10:54:46;12.0;63.3
78536;SHT31;67829;51.968;5.684;2023-03-20T10:57:21;12.0;63.0
78536;SHT31;67829;51.968;5.684;2023-03-20T10:59:52;12.0;62.6
78536;SHT31;67829;51.968;5.684;2023-03-20T11:02:24;12.0;63.3
78536;SHT31;67829;51.968;5.684;2023-03-20T11:04:56;12.0;64.1
78536;SHT31;67829;51.968;5.684;2023-03-20T11:07:31;12.0;64.8
78536;SHT31;67829;51.968;5.684;2023-03-20T11:10:13;12.1;64.8
78536;SHT31;67829;51.968;5.684;2023-03-20T11:12:44;12.1;62.8
78536;SHT31;67829;51.968;5.684;2023-03-20T11:15:20;12.1;62.1
78536;SHT31;67829;51.968;5.684;2023-03-20T11:17:54;12.1;62.7
78536;SHT31;67829;51.968;5.684;2023-03-20T11:20:25;12.1;63.7
78536;SHT31;67829;51.968;5.684;2023-03-20T11:23:02;12.1;63.3
78536;SHT31;67829;51.968;5.684;2023-03-20T11:25:35;12.1;63.1
78536;SHT31;67829;51.968;5.684;2023-03-20T11:28:24;12.2;63.8
78536;SHT31;67829;51.968;5.684;2023-03-20T11:30:58;12.2;63.7
78536;SHT31;67829;51.968;5.684;2023-03-20T11:33:28;12.2;64.5
78536;SHT31;67829;51.968;5.684;2023-03-20T11:35:58;12.2;62.2
78536;SHT31;67829;51.968;5.684;2023-03-20T11:38:29;12.2;62.8
78536;SHT31;67829;51.968;5.684;2023-03-20T11:41:03;12.2;63.2
78536;SHT31;67829;51.968;5.684;2023-03-20T11:43:36;12.3;62.8
78536;SHT31;67829;51.968;5.684;2023-03-20T11:46:10;12.3;64.2
78536;SHT31;67829;51.968;5.684;2023-03-20T11:48:41;12.3;63.7
78536;SHT31;67829;51.968;5.684;2023-03-20T11:51:15;12.4;63.2
78536;SHT31;67829;51.968;5.684;2023-03-20T11:53:57;12.4;62.4
78536;SHT31;67829;51.968;5.684;2023-03-20T11:56:29;12.4;62.2
78536;SHT31;67829;51.968;5.684;2023-03-20T11:59:02;12.4;61.8
78536;SHT31;67829;51.968;5.684;2023-03-20T12:01:41;12.4;62.3
78536;SHT31;67829;51.968;5.684;2023-03-20T12:04:15;12.4;62.0
78536;SHT31;67829;51.968;5.684;2023-03-20T12:06:52;12.4;61.0
78536;SHT31;67829;51.968;5.684;2023-03-20T12:09:34;12.3;60.9
78536;SHT31;67829;51.968;5.684;2023-03-20T12:12:14;12.3;62.6
78536;SHT31;67829;51.968;5.684;2023-03-20T12:14:49;12.3;62.8
78536;SHT31;67829;51.968;5.684;2023-03-20T12:17:32;12.3;63.1
78536;SHT31;67829;51.968;5.684;2023-03-20T12:20:10;12.3;63.6
78536;SHT31;67829;51.968;5.684;2023-03-20T12:22:49;12.3;64.1
78536;SHT31;67829;51.968;5.684;2023-03-20T12:25:24;12.3;64.7
78536;SHT31;67829;51.968;5.684;2023-03-20T12:28:04;12.3;64.9
78536;SHT31;67829;51.968;5.684;2023-03-20T12:30:47;12.3;65.2
78536;SHT31;67829;51.968;5.684;2023-03-20T12:33:28;12.3;65.0
78536;SHT31;67829;51.968;5.684;2023-03-20T12:36:02;12.3;65.4
78536;SHT31;67829;51.968;5.684;2023-03-20T12:38:32;12.3;64.5
78536;SHT31;67829;51.968;5.684;2023-03-20T12:41:12;12.4;65.3
78536;SHT31;67829;51.968;5.684;2023-03-20T12:43:51;12.4;65.7
78536;SHT31;67829;51.968;5.684;2023-03-20T12:46:32;12.4;65.4
78536;SHT31;67829;51.968;5.684;2023-03-20T12:49:13;12.4;65.0
78536;SHT31;67829;51.968;5.684;2023-03-20T12:51:56;12.4;66.9
78536;SHT31;67829;51.968;5.684;2023-03-20T12:54:39;12.4;65.6
78536;SHT31;67829;51.968;5.684;2023-03-20T12:57:20;12.4;65.1
78536;SHT31;67829;51.968;5.684;2023-03-20T13:00:00;12.4;65.5
78536;SHT31;67829;51.968;5.684;2023-03-20T13:02:45;12.4;65.5
78536;SHT31;67829;51.968;5.684;2023-03-20T13:05:27;12.4;65.4
78536;SHT31;67829;51.968;5.684;2023-03-20T13:08:08;12.4;64.9
78536;SHT31;67829;51.968;5.684;2023-03-20T13:10:42;12.4;65.3
78536;SHT31;67829;51.968;5.684;2023-03-20T13:13:23;12.4;66.0
78536;SHT31;67829;51.968;5.684;2023-03-20T13:16:02;12.4;65.6
78536;SHT31;67829;51.968;5.684;2023-03-20T13:18:47;12.4;65.4
78536;SHT31;67829;51.968;5.684;2023-03-20T13:21:26;12.4;65.1
78536;SHT31;67829;51.968;5.684;2023-03-20T13:24:13;12.4;65.8
78536;SHT31;67829;51.968;5.684;2023-03-20T13:26:49;12.4;65.7
78536;SHT31;67829;51.968;5.684;2023-03-20T13:29:25;12.4;66.1
78536;SHT31;67829;51.968;5.684;2023-03-20T13:32:02;12.4;65.2
78536;SHT31;67829;51.968;5.684;2023-03-20T13:34:45;12.4;65.7
78536;SHT31;67829;51.968;5.684;2023-03-20T13:37:22;12.4;65.0
78536;SHT31;67829;51.968;5.684;2023-03-20T13:40:02;12.4;65.1
78536;SHT31;67829;51.968;5.684;2023-03-20T13:42:36;12.4;65.7
78536;SHT31;67829;51.968;5.684;2023-03-20T13:45:20;12.4;65.3
78536;SHT31;67829;51.968;5.684;2023-03-20T13:47:51;12.4;65.8
78536;SHT31;67829;51.968;5.684;2023-03-20T13:50:29;12.4;66.2
78536;SHT31;67829;51.968;5.684;2023-03-20T13:53:05;12.4;66.0
78536;SHT31;67829;51.968;5.684;2023-03-20T13:55:47;12.4;65.7
78536;SHT31;67829;51.968;5.684;2023-03-20T13:58:26;12.4;66.1
78536;SHT31;67829;51.968;5.684;2023-03-20T14:01:04;12.3;66.8
78536;SHT31;67829;51.968;5.684;2023-03-20T14:03:37;12.3;66.6
78536;SHT31;67829;51.968;5.684;2023-03-20T14:06:51;12.3;66.2
78536;SHT31;67829;51.968;5.684;2023-03-20T14:09:28;12.3;66.5
78536;SHT31;67829;51.968;5.684;2023-03-20T14:12:01;12.3;66.7
78536;SHT31;67829;51.968;5.684;2023-03-20T14:14:31;12.3;67.6
78536;SHT31;67829;51.968;5.684;2023-03-20T14:17:06;12.2;67.3
78536;SHT31;67829;51.968;5.684;2023-03-20T14:19:37;12.2;67.6
78536;SHT31;67829;51.968;5.684;2023-03-20T14:22:17;12.2;68.3
78536;SHT31;67829;51.968;5.684;2023-03-20T14:24:50;12.3;67.8
78536;SHT31;67829;51.968;5.684;2023-03-20T14:27:23;12.3;68.2
78536;SHT31;67829;51.968;5.684;2023-03-20T14:29:53;12.3;67.3
78536;SHT31;67829;51.968;5.684;2023-03-20T14:32:32;12.3;67.6
78536;SHT31;67829;51.968;5.684;2023-03-20T14:35:21;12.3;67.7
78536;SHT31;67829;51.968;5.684;2023-03-20T14:38:36;12.3;68.2
78536;SHT31;67829;51.968;5.684;2023-03-20T14:41:13;12.3;68.6
78536;SHT31;67829;51.968;5.684;2023-03-20T14:43:57;12.3;67.7
78536;SHT31;67829;51.968;5.684;2023-03-20T14:46:42;12.3;68.2
78536;SHT31;67829;51.968;5.684;2023-03-20T14:49:24;12.3;68.5
78536;SHT31;67829;51.968;5.684;2023-03-20T14:52:01;12.3;68.3
78536;SHT31;67829;51.968;5.684;2023-03-20T14:54:33;12.3;68.2
78536;SHT31;67829;51.968;5.684;2023-03-20T14:57:15;12.3;68.8
78536;SHT31;67829;51.968;5.684;2023-03-20T14:59:49;12.3;68.8
78536;SHT31;67829;51.968;5.684;2023-03-20T15:02:25;12.3;68.9
78536;SHT31;67829;51.968;5.684;2023-03-20T15:04:54;12.3;69.3
78536;SHT31;67829;51.968;5.684;2023-03-20T15:07:27;12.3;69.2
78536;SHT31;67829;51.968;5.684;2023-03-20T15:09:59;12.3;69.3
78536;SHT31;67829;51.968;5.684;2023-03-20T15:12:34;12.3;68.8
78536;SHT31;67829;51.968;5.684;2023-03-20T15:15:05;12.3;68.1
78536;SHT31;67829;51.968;5.684;2023-03-20T15:17:37;12.3;68.0
78536;SHT31;67829;51.968;5.684;2023-03-20T15:20:13;12.3;67.3
78536;SHT31;67829;51.968;5.684;2023-03-20T15:22:49;12.3;67.9
78536;SHT31;67829;51.968;5.684;2023-03-20T15:25:21;12.3;68.7
78536;SHT31;67829;51.968;5.684;2023-03-20T15:27:50;12.2;68.7
78536;SHT31;67829;51.968;5.684;2023-03-20T15:30:20;12.2;68.9
78536;SHT31;67829;51.968;5.684;2023-03-20T15:32:52;12.2;69.2
78536;SHT31;67829;51.968;5.684;2023-03-20T15:35:25;12.2;68.8
78536;SHT31;67829;51.968;5.684;2023-03-20T15:37:56;12.2;69.1
78536;SHT31;67829;51.968;5.684;2023-03-20T15:40:28;12.1;68.8
78536;SHT31;67829;51.968;5.684;2023-03-20T15:42:59;12.1;69.4
78536;SHT31;67829;51.968;5.684;2023-03-20T15:45:32;12.1;69.4
78536;SHT31;67829;51.968;5.684;2023-03-20T15:48:04;12.1;69.7
78536;SHT31;67829;51.968;5.684;2023-03-20T15:50:36;12.1;70.0
78536;SHT31;67829;51.968;5.684;2023-03-20T15:53:07;12.0;70.1
78536;SHT31;67829;51.968;5.684;2023-03-20T15:55:38;12.0;70.3
78536;SHT31;67829;51.968;5.684;2023-03-20T15:58:10;12.0;70.4
78536;SHT31;67829;51.968;5.684;2023-03-20T16:00:43;12.0;70.4
78536;SHT31;67829;51.968;5.684;2023-03-20T16:03:16;12.0;70.6
78536;SHT31;67829;51.968;5.684;2023-03-20T16:05:48;12.0;70.7
78536;SHT31;67829;51.968;5.684;2023-03-20T16:08:23;12.0;71.0
78536;SHT31;67829;51.968;5.684;2023-03-20T16:10:57;12.0;71.2
78536;SHT31;67829;51.968;5.684;2023-03-20T16:13:32;12.0;70.9
78536;SHT31;67829;51.968;5.684;2023-03-20T16:16:02;12.0;71.1
78536;SHT31;67829;51.968;5.684;2023-03-20T16:18:35;12.0;71.1
78536;SHT31;67829;51.968;5.684;2023-03-20T16:21:09;12.0;70.9
78536;SHT31;67829;51.968;5.684;2023-03-20T16:23:43;12.0;71.1
78536;SHT31;67829;51.968;5.684;2023-03-20T16:26:16;12.0;71.2
78536;SHT31;67829;51.968;5.684;2023-03-20T16:28:49;12.0;70.8
78536;SHT31;67829;51.968;5.684;2023-03-20T16:31:21;12.1;70.7
78536;SHT31;67829;51.968;5.684;2023-03-20T16:33:51;12.1;70.6
78536;SHT31;67829;51.968;5.684;2023-03-20T16:36:25;12.1;70.8
78536;SHT31;67829;51.968;5.684;2023-03-20T16:38:57;12.1;70.7
78536;SHT31;67829;51.968;5.684;2023-03-20T16:41:30;12.2;70.6
78536;SHT31;67829;51.968;5.684;2023-03-20T16:44:04;12.2;70.7